createdAt,value
2023-01-17T00:00:08.530Z,92.83
2023-01-17T00:02:34.765Z,93.20
2023-01-17T00:05:01.220Z,93.86
2023-01-17T00:07:27.617Z,94.60
2023-01-17T00:09:54.001Z,94.81
2023-01-17T00:12:20.331Z,95.01
2023-01-17T00:14:46.674Z,95.48
2023-01-17T00:17:12.996Z,95.88
2023-01-17T00:19:39.384Z,95.91
2023-01-17T00:22:05.784Z,95.90
2023-01-17T00:24:32.236Z,95.82
2023-01-17T00:26:58.636Z,96.08
2023-01-17T00:29:24.946Z,96.61
2023-01-17T00:31:51.268Z,97.50
2023-01-17T00:34:17.627Z,97.69
2023-01-17T00:36:44.015Z,97.57
2023-01-17T00:39:10.335Z,97.57
2023-01-17T00:41:36.689Z,97.72
2023-01-17T00:44:03.128Z,97.63
2023-01-17T00:46:29.446Z,97.61
2023-01-17T00:48:55.837Z,97.53
2023-01-17T00:51:22.306Z,97.41
2023-01-17T00:53:48.656Z,97.19
2023-01-17T00:56:15.005Z,97.04
2023-01-17T00:58:41.321Z,96.93
2023-01-17T01:01:07.840Z,97.23
2023-01-17T01:03:34.158Z,97.31
2023-01-17T01:06:00.502Z,97.32
2023-01-17T01:08:26.819Z,97.31
2023-01-17T01:10:53.250Z,97.23
2023-01-17T01:13:19.693Z,97.12
2023-01-17T01:15:46.041Z,96.93
2023-01-17T01:18:12.413Z,97.11
2023-01-17T01:20:38.742Z,97.14
2023-01-17T01:23:05.105Z,97.23
2023-01-17T01:25:31.463Z,97.26
2023-01-17T01:27:57.896Z,97.35
2023-01-17T01:30:24.265Z,97.24
2023-01-17T01:32:50.567Z,97.01
2023-01-17T01:35:16.968Z,97.18
2023-01-17T01:37:43.348Z,97.50
2023-01-17T01:40:09.749Z,97.74
2023-01-17T01:42:36.184Z,97.92
2023-01-17T01:45:02.546Z,98.15
2023-01-17T01:47:28.952Z,98.22
2023-01-17T01:49:55.660Z,98.58
2023-01-17T01:52:22.056Z,98.65
2023-01-17T01:54:48.402Z,98.50
2023-01-17T01:57:14.799Z,98.40
2023-01-17T01:59:41.202Z,98.47
2023-01-17T02:02:07.566Z,98.37
2023-01-17T02:04:33.936Z,98.17
2023-01-17T02:07:00.250Z,97.91
2023-01-17T02:09:26.665Z,97.68
2023-01-17T02:11:53.047Z,97.41
2023-01-17T02:14:21.595Z,97.17
2023-01-17T02:16:48.030Z,97.44
2023-01-17T02:19:14.365Z,97.60
2023-01-17T02:21:40.715Z,97.91
2023-01-17T02:24:07.079Z,97.90
2023-01-17T02:26:33.515Z,97.79
2023-01-17T02:28:59.864Z,97.77
2023-01-17T02:31:26.278Z,97.67
2023-01-17T02:33:52.629Z,97.69
2023-01-17T02:36:19.025Z,97.79
2023-01-17T02:38:45.417Z,97.99
2023-01-17T02:41:11.729Z,98.12
2023-01-17T02:43:38.105Z,98.19
2023-01-17T02:46:04.460Z,98.20
2023-01-17T02:48:30.819Z,98.17
2023-01-17T02:50:57.118Z,98.21
2023-01-17T02:53:23.489Z,98.42
2023-01-17T02:55:49.841Z,98.67
2023-01-17T02:58:16.272Z,98.57
2023-01-17T03:00:42.630Z,98.41
2023-01-17T03:03:08.966Z,98.39
2023-01-17T03:05:35.365Z,98.33
2023-01-17T03:08:01.742Z,98.29
2023-01-17T03:10:28.044Z,98.43
2023-01-17T03:12:54.431Z,98.76
2023-01-17T03:15:20.749Z,99.10
2023-01-17T03:17:47.061Z,99.41
2023-01-17T03:20:13.378Z,99.57
2023-01-17T03:22:39.723Z,99.81
2023-01-17T03:25:06.017Z,99.87
2023-01-17T03:27:32.360Z,99.95
2023-01-17T03:29:58.729Z,100.00
2023-01-17T03:32:25.052Z,99.77
2023-01-17T03:34:51.464Z,99.47
2023-01-17T03:37:17.926Z,99.51
2023-01-17T03:39:44.367Z,99.62
2023-01-17T03:42:10.640Z,99.58
2023-01-17T03:44:37.062Z,99.84
2023-01-17T03:47:03.458Z,99.68
2023-01-17T03:49:29.759Z,99.27
2023-01-17T03:51:56.075Z,98.98
2023-01-17T03:54:22.484Z,99.02
2023-01-17T03:56:48.789Z,98.96
2023-01-17T03:59:15.193Z,98.95
2023-01-17T04:01:41.789Z,98.93
2023-01-17T04:04:07.898Z,99.02
2023-01-17T04:06:34.252Z,98.73
2023-01-17T04:09:00.639Z,98.59
2023-01-17T04:11:26.949Z,98.33
2023-01-17T04:13:53.294Z,98.02
2023-01-17T04:16:20.175Z,97.65
2023-01-17T04:18:46.503Z,97.42
2023-01-17T04:21:12.819Z,97.31
2023-01-17T04:23:39.233Z,96.77
2023-01-17T04:26:05.533Z,96.56
2023-01-17T04:28:31.943Z,96.46
2023-01-17T04:30:58.402Z,96.42
2023-01-17T04:33:24.709Z,96.20
2023-01-17T04:35:51.113Z,96.16
2023-01-17T04:38:17.526Z,96.25
2023-01-17T04:40:43.958Z,95.98
2023-01-17T04:43:10.355Z,95.55
2023-01-17T04:45:36.701Z,94.94
2023-01-17T04:48:03.095Z,94.64
2023-01-17T04:50:29.411Z,94.60
2023-01-17T04:52:55.774Z,94.26
2023-01-17T04:55:22.157Z,94.02
2023-01-17T04:57:48.468Z,94.08
2023-01-17T05:00:14.861Z,94.20
2023-01-17T05:02:41.356Z,94.25
2023-01-17T05:05:07.710Z,93.94
2023-01-17T05:07:35.741Z,93.62
2023-01-17T05:10:00.431Z,93.22
2023-01-17T05:12:26.800Z,93.07
2023-01-17T05:14:53.151Z,92.88
2023-01-17T05:17:19.551Z,92.84
2023-01-17T05:19:45.854Z,92.72
2023-01-17T05:22:12.261Z,92.45
2023-01-17T05:24:38.577Z,92.28
2023-01-17T05:27:04.950Z,91.81
2023-01-17T05:29:31.280Z,91.52
2023-01-17T05:31:57.715Z,91.41
2023-01-17T05:34:24.072Z,91.66
2023-01-17T05:36:50.427Z,91.53
2023-01-17T05:39:16.843Z,91.60
2023-01-17T05:41:43.165Z,91.60
2023-01-17T05:44:09.610Z,91.76
2023-01-17T05:46:36.091Z,91.80
2023-01-17T05:49:02.408Z,92.01
2023-01-17T05:51:28.846Z,92.26
2023-01-17T05:53:55.193Z,92.34
2023-01-17T05:56:21.621Z,92.32
2023-01-17T05:58:47.935Z,92.42
2023-01-17T06:01:14.357Z,92.44
2023-01-17T06:03:40.689Z,92.10
2023-01-17T06:06:07.077Z,91.89
2023-01-17T06:08:33.403Z,90.86
2023-01-17T06:10:59.782Z,89.98
2023-01-17T06:13:26.156Z,88.84
2023-01-17T06:15:52.590Z,88.54
2023-01-17T06:18:19.115Z,87.91
2023-01-17T06:20:45.471Z,86.49
2023-01-17T06:23:11.900Z,85.05
2023-01-17T06:25:38.325Z,83.75
2023-01-17T06:28:04.657Z,83.15
2023-01-17T06:30:31.083Z,82.80
2023-01-17T06:32:57.553Z,82.50
2023-01-17T06:35:23.913Z,82.70
2023-01-17T06:37:50.319Z,81.98
2023-01-17T06:40:16.671Z,81.80
2023-01-17T06:42:42.984Z,82.10
2023-01-17T06:45:09.359Z,82.42
2023-01-17T06:47:35.765Z,83.00
2023-01-17T06:50:02.205Z,83.51
2023-01-17T06:52:28.516Z,83.87
2023-01-17T06:54:54.921Z,84.60
2023-01-17T06:57:21.331Z,85.07
2023-01-17T06:59:47.802Z,85.27
2023-01-17T07:02:14.128Z,85.26
2023-01-17T07:04:40.450Z,85.54
2023-01-17T07:07:06.815Z,85.56
2023-01-17T07:09:33.156Z,85.60
2023-01-17T07:11:59.492Z,85.34
2023-01-17T07:14:25.928Z,85.24
2023-01-17T07:16:52.304Z,85.32
2023-01-17T07:19:18.616Z,84.62
2023-01-17T07:21:45.028Z,84.51
2023-01-17T07:24:11.474Z,84.09
2023-01-17T07:26:37.827Z,83.52
2023-01-17T07:29:04.194Z,83.21
2023-01-17T07:31:30.652Z,82.58
2023-01-17T07:33:57.170Z,82.53
2023-01-17T07:36:23.562Z,82.06
2023-01-17T07:38:49.985Z,81.16
2023-01-17T07:41:16.353Z,80.89
2023-01-17T07:43:42.753Z,79.14
2023-01-17T07:46:09.122Z,77.04
2023-01-17T07:48:38.032Z,75.97
2023-01-17T07:51:04.459Z,75.61
2023-01-17T07:53:30.827Z,74.79
2023-01-17T07:55:57.229Z,74.27
2023-01-17T07:58:23.647Z,74.69
2023-01-17T08:00:50.106Z,74.05
2023-01-17T08:03:16.343Z,73.55
2023-01-17T08:05:42.717Z,73.41
2023-01-17T08:08:09.059Z,73.47
2023-01-17T08:10:35.382Z,73.75
2023-01-17T08:13:01.755Z,73.86
2023-01-17T08:15:28.166Z,73.70
2023-01-17T08:17:54.588Z,73.81
2023-01-17T08:20:21.029Z,73.64
2023-01-17T08:22:47.502Z,73.25
2023-01-17T08:25:13.853Z,72.92
2023-01-17T08:27:40.221Z,73.20
2023-01-17T08:30:06.585Z,73.17
2023-01-17T08:32:32.904Z,72.90
2023-01-17T08:34:59.255Z,72.53
2023-01-17T08:37:25.611Z,72.45
2023-01-17T08:39:51.991Z,71.82
2023-01-17T08:42:18.305Z,70.78
2023-01-17T08:44:44.758Z,70.97
2023-01-17T08:47:11.128Z,70.98
2023-01-17T08:49:37.547Z,70.28
2023-01-17T08:52:03.853Z,69.79
2023-01-17T08:54:30.297Z,69.66
2023-01-17T08:56:56.660Z,69.96
2023-01-17T08:59:23.016Z,69.92
2023-01-17T09:01:49.523Z,69.16
2023-01-17T09:04:15.755Z,66.66
2023-01-17T09:06:42.142Z,65.24
2023-01-17T09:09:08.519Z,63.06
2023-01-17T09:11:34.976Z,62.74
2023-01-17T09:14:01.344Z,64.02
2023-01-17T09:16:27.753Z,63.78
2023-01-17T09:18:54.394Z,62.48
2023-01-17T09:21:20.743Z,62.68
2023-01-17T09:23:47.151Z,63.10
2023-01-17T09:26:13.557Z,62.62
2023-01-17T09:28:39.870Z,62.76
2023-01-17T09:31:06.260Z,62.31
2023-01-17T09:33:32.638Z,61.83
2023-01-17T09:35:59.050Z,61.72
2023-01-17T09:38:25.528Z,61.16
2023-01-17T09:40:51.879Z,59.45
2023-01-17T09:43:18.216Z,59.62
2023-01-17T09:45:44.593Z,60.91
2023-01-17T09:48:11.523Z,60.83
2023-01-17T09:50:37.845Z,61.14
2023-01-17T09:53:04.215Z,61.01
2023-01-17T09:55:30.626Z,61.17
2023-01-17T09:57:57.007Z,61.36
2023-01-17T10:00:23.566Z,60.86
2023-01-17T10:02:50.100Z,61.12
2023-01-17T10:05:16.437Z,60.61
2023-01-17T10:07:42.786Z,60.81
2023-01-17T10:10:09.162Z,60.84
2023-01-17T10:12:35.550Z,60.50
2023-01-17T10:15:01.927Z,60.17
2023-01-17T10:17:28.253Z,60.13
2023-01-17T10:19:54.663Z,59.13
2023-01-17T10:22:21.328Z,58.70
2023-01-17T10:24:47.838Z,58.55
2023-01-17T10:27:14.252Z,57.77
2023-01-17T10:29:40.605Z,56.70
2023-01-17T10:32:07.031Z,56.62
2023-01-17T10:34:33.381Z,57.40
2023-01-17T10:36:59.779Z,57.80
2023-01-17T10:39:26.144Z,58.16
2023-01-17T10:41:52.461Z,57.44
2023-01-17T10:44:18.783Z,57.19
2023-01-17T10:46:45.157Z,56.15
2023-01-17T10:49:11.476Z,56.13
2023-01-17T10:51:37.889Z,55.79
2023-01-17T10:54:04.425Z,56.26
2023-01-17T10:56:30.737Z,56.78
2023-01-17T10:58:57.052Z,56.20
2023-01-17T11:01:23.538Z,56.43
2023-01-17T11:03:49.821Z,55.98
2023-01-17T11:06:16.221Z,55.92
2023-01-17T11:08:42.536Z,54.96
2023-01-17T11:11:08.909Z,54.63
2023-01-17T11:13:35.319Z,54.03
2023-01-17T11:16:01.649Z,53.09
2023-01-17T11:18:28.051Z,53.48
2023-01-17T11:20:54.445Z,53.38
2023-01-17T11:23:20.876Z,53.94
2023-01-17T11:25:47.204Z,54.46
2023-01-17T11:28:16.347Z,53.69
2023-01-17T11:30:42.727Z,53.45
2023-01-17T11:33:09.076Z,53.20
2023-01-17T11:35:35.462Z,51.84
2023-01-17T11:38:01.873Z,51.53
2023-01-17T11:40:28.255Z,52.09
2023-01-17T11:42:54.623Z,52.00
2023-01-17T11:45:21.026Z,50.32
2023-01-17T11:47:47.384Z,50.88
2023-01-17T11:50:13.808Z,50.81
2023-01-17T11:52:40.214Z,50.27
2023-01-17T11:55:06.519Z,50.30
2023-01-17T11:57:33.031Z,49.88
2023-01-17T11:59:59.339Z,50.15
2023-01-17T12:02:25.654Z,50.29
2023-01-17T12:04:52.236Z,50.12
2023-01-17T12:07:18.589Z,49.53
2023-01-17T12:09:44.918Z,49.14
2023-01-17T12:12:11.644Z,49.00
2023-01-17T12:14:38.013Z,48.54
2023-01-17T12:17:04.413Z,49.51
2023-01-17T12:19:30.790Z,49.78
2023-01-17T12:21:57.353Z,48.87
2023-01-17T12:24:23.745Z,48.96
2023-01-17T12:26:50.297Z,49.31
2023-01-17T12:29:16.706Z,49.74
2023-01-17T12:31:43.191Z,49.65
2023-01-17T12:34:09.548Z,49.41
2023-01-17T12:36:36.095Z,48.24
2023-01-17T12:39:02.521Z,48.10
2023-01-17T12:41:28.873Z,47.19
2023-01-17T12:43:55.188Z,46.34
2023-01-17T12:46:21.581Z,47.04
2023-01-17T12:48:47.873Z,47.64
2023-01-17T12:51:14.249Z,48.11
2023-01-17T12:53:40.665Z,48.58
2023-01-17T12:56:07.074Z,48.61
2023-01-17T12:58:33.455Z,48.71
2023-01-17T13:01:00.075Z,48.80
2023-01-17T13:03:26.162Z,49.04
2023-01-17T13:05:52.516Z,49.14
2023-01-17T13:08:18.857Z,49.00
2023-01-17T13:10:45.202Z,49.00
2023-01-17T13:13:11.611Z,49.20
2023-01-17T13:15:38.020Z,48.84
2023-01-17T13:18:04.466Z,49.33
2023-01-17T13:20:30.881Z,49.41
2023-01-17T13:22:57.278Z,49.91
2023-01-17T13:25:23.678Z,49.91
2023-01-17T13:27:50.035Z,50.64
2023-01-17T13:30:16.476Z,50.17
2023-01-17T13:32:42.998Z,49.19
2023-01-17T13:35:09.385Z,49.41
2023-01-17T13:37:35.777Z,49.94
2023-01-17T13:40:02.800Z,50.32
2023-01-17T13:42:29.199Z,50.40
2023-01-17T13:44:55.528Z,50.11
2023-01-17T13:47:23.763Z,49.93
2023-01-17T13:49:48.254Z,50.41
2023-01-17T13:52:17.101Z,50.33
2023-01-17T13:54:43.473Z,49.84
2023-01-17T13:57:09.872Z,49.66
2023-01-17T13:59:36.343Z,49.35
2023-01-17T14:02:02.750Z,49.03
2023-01-17T14:04:29.072Z,49.88
2023-01-17T14:06:55.473Z,49.50
2023-01-17T14:09:21.804Z,49.24
2023-01-17T14:11:48.203Z,47.24
2023-01-17T14:14:14.644Z,47.41
2023-01-17T14:16:41.037Z,47.58
2023-01-17T14:19:07.352Z,48.43
2023-01-17T14:21:33.796Z,49.94
2023-01-17T14:24:00.235Z,50.29
2023-01-17T14:26:26.548Z,49.61
2023-01-17T14:28:52.908Z,49.09
2023-01-17T14:31:19.368Z,47.84
2023-01-17T14:33:45.737Z,47.16
2023-01-17T14:36:12.076Z,47.34
2023-01-17T14:38:38.465Z,46.65
2023-01-17T14:41:04.841Z,45.48
2023-01-17T14:43:31.247Z,45.92
2023-01-17T14:45:57.728Z,46.43
2023-01-17T14:48:24.030Z,47.00
2023-01-17T14:50:50.514Z,47.48
2023-01-17T14:53:16.930Z,48.67
2023-01-17T14:55:43.365Z,49.13
2023-01-17T14:58:09.774Z,48.62
2023-01-17T15:00:36.182Z,49.31
2023-01-17T15:03:02.602Z,49.70
2023-01-17T15:05:28.975Z,49.80
2023-01-17T15:07:55.429Z,49.98
2023-01-17T15:10:21.844Z,49.42
2023-01-17T15:12:48.276Z,49.50
2023-01-17T15:15:14.578Z,49.18
2023-01-17T15:17:40.908Z,53.32
2023-01-17T15:20:07.299Z,56.23
2023-01-17T15:22:33.609Z,59.29
2023-01-17T15:24:59.935Z,61.91
2023-01-17T15:27:26.277Z,63.26
2023-01-17T15:29:52.697Z,59.43
2023-01-17T15:32:19.037Z,60.82
2023-01-17T15:34:45.368Z,60.54
2023-01-17T15:37:11.734Z,58.51
2023-01-17T15:39:38.092Z,56.54
2023-01-17T15:42:05.635Z,55.83
2023-01-17T15:44:46.887Z,55.26
2023-01-17T15:46:58.338Z,54.45
2023-01-17T15:49:24.702Z,53.02
2023-01-17T15:51:51.074Z,52.27
2023-01-17T15:54:17.481Z,52.57
2023-01-17T15:56:43.905Z,52.81
2023-01-17T15:59:10.306Z,52.11
2023-01-17T16:01:36.780Z,51.74
2023-01-17T16:04:03.025Z,52.68
2023-01-17T16:06:29.362Z,54.31
2023-01-17T16:08:55.824Z,58.45
2023-01-17T16:11:22.182Z,62.47
2023-01-17T16:13:48.595Z,64.54
2023-01-17T16:16:15.126Z,65.96
2023-01-17T16:18:41.324Z,65.00
2023-01-17T16:21:07.724Z,65.56
2023-01-17T16:23:34.099Z,64.24
2023-01-17T16:26:00.453Z,64.16
2023-01-17T16:28:26.837Z,65.96
2023-01-17T16:30:53.302Z,68.75
2023-01-17T16:33:19.616Z,70.37
2023-01-17T16:35:46.029Z,71.94
2023-01-17T16:38:12.787Z,71.82
2023-01-17T16:40:39.150Z,72.33
2023-01-17T16:43:05.473Z,73.15
2023-01-17T16:45:31.838Z,72.60
2023-01-17T16:47:58.260Z,72.41
2023-01-17T16:50:24.670Z,72.01
2023-01-17T16:52:51.023Z,72.21
2023-01-17T16:55:17.406Z,72.24
2023-01-17T16:57:43.799Z,72.16
2023-01-17T17:00:10.176Z,72.14
2023-01-17T17:02:36.552Z,72.20
2023-01-17T17:05:03.152Z,71.23
2023-01-17T17:07:29.511Z,70.50
2023-01-17T17:09:55.843Z,70.50
2023-01-17T17:12:22.264Z,70.71
2023-01-17T17:14:48.571Z,70.84
2023-01-17T17:17:14.968Z,70.59
2023-01-17T17:19:41.322Z,70.45
2023-01-17T17:22:07.699Z,70.33
2023-01-17T17:24:34.327Z,70.60
2023-01-17T17:27:00.767Z,70.94
2023-01-17T17:29:27.189Z,70.79
2023-01-17T17:31:53.810Z,70.60
2023-01-17T17:34:20.177Z,70.78
2023-01-17T17:36:46.566Z,71.05
2023-01-17T17:39:13.118Z,71.29
2023-01-17T17:41:39.523Z,71.60
2023-01-17T17:44:05.968Z,71.58
2023-01-17T17:46:32.458Z,71.92
2023-01-17T17:48:58.808Z,72.22
2023-01-17T17:51:25.176Z,72.23
2023-01-17T17:53:51.903Z,72.25
2023-01-17T17:56:18.290Z,72.60
2023-01-17T17:58:46.182Z,72.77
2023-01-17T18:01:11.165Z,73.17
2023-01-17T18:03:37.711Z,73.54
2023-01-17T18:06:04.099Z,73.83
2023-01-17T18:08:30.510Z,74.22
2023-01-17T18:10:56.868Z,74.76
2023-01-17T18:13:23.227Z,75.42
2023-01-17T18:15:49.631Z,75.48
2023-01-17T18:18:16.008Z,75.36
2023-01-17T18:20:42.569Z,75.75
2023-01-17T18:23:08.924Z,75.76
2023-01-17T18:25:36.447Z,75.78
2023-01-17T18:28:01.642Z,76.03
2023-01-17T18:30:29.174Z,76.22
2023-01-17T18:32:55.526Z,76.20
2023-01-17T18:35:21.969Z,76.22
2023-01-17T18:37:48.361Z,76.40
2023-01-17T18:40:14.782Z,76.70
2023-01-17T18:42:41.269Z,76.82
2023-01-17T18:45:10.853Z,76.84
2023-01-17T18:47:38.662Z,76.95
2023-01-17T18:50:03.738Z,77.30
2023-01-17T18:52:30.085Z,77.61
2023-01-17T18:54:56.422Z,77.14
2023-01-17T18:57:22.859Z,77.06
2023-01-17T18:59:49.407Z,76.90
2023-01-17T19:02:15.809Z,77.01
2023-01-17T19:04:42.208Z,74.79
2023-01-17T19:07:09.365Z,72.29
2023-01-17T19:09:34.986Z,70.28
2023-01-17T19:12:01.470Z,69.10
2023-01-17T19:14:27.855Z,70.40
2023-01-17T19:16:54.264Z,72.02
2023-01-17T19:19:20.685Z,73.19
2023-01-17T19:21:47.050Z,73.89
2023-01-17T19:24:13.568Z,73.89
2023-01-17T19:26:39.975Z,74.01
2023-01-17T19:29:06.318Z,74.07
2023-01-17T19:31:32.738Z,73.99
2023-01-17T19:33:59.205Z,73.67
2023-01-17T19:36:25.581Z,72.90
2023-01-17T19:39:03.589Z,73.62
2023-01-17T19:41:18.322Z,73.05
2023-01-17T19:43:44.832Z,72.16
2023-01-17T19:46:11.168Z,71.20
2023-01-17T19:48:37.590Z,70.59
2023-01-17T19:51:03.987Z,70.24
2023-01-17T19:53:30.338Z,69.76
2023-01-17T19:55:56.723Z,68.33
2023-01-17T19:58:23.089Z,66.89
2023-01-17T20:00:49.524Z,66.18
2023-01-17T20:03:15.877Z,66.20
2023-01-17T20:05:42.247Z,66.36
2023-01-17T20:08:08.669Z,66.66
2023-01-17T20:10:35.534Z,66.92
2023-01-17T20:13:01.964Z,67.17
2023-01-17T20:15:28.343Z,66.38
2023-01-17T20:17:55.050Z,64.59
2023-01-17T20:20:21.170Z,64.34
2023-01-17T20:22:47.522Z,64.62
2023-01-17T20:25:13.891Z,64.72
2023-01-17T20:27:40.379Z,64.29
2023-01-17T20:30:19.260Z,63.59
2023-01-17T20:32:33.105Z,63.76
2023-01-17T20:34:59.516Z,63.55
2023-01-17T20:37:25.929Z,63.32
2023-01-17T20:39:52.337Z,63.02
2023-01-17T20:42:18.767Z,62.01
2023-01-17T20:44:45.166Z,62.08
2023-01-17T20:47:11.550Z,62.00
2023-01-17T20:49:37.955Z,61.65
2023-01-17T20:52:06.128Z,61.60
2023-01-17T20:54:30.646Z,61.65
2023-01-17T20:56:57.083Z,61.42
2023-01-17T20:59:23.414Z,62.02
2023-01-17T21:01:49.859Z,62.45
2023-01-17T21:04:16.254Z,62.73
2023-01-17T21:06:42.615Z,62.47
2023-01-17T21:09:08.931Z,62.56
2023-01-17T21:11:35.356Z,62.40
2023-01-17T21:14:01.755Z,62.50
2023-01-17T21:16:28.124Z,62.56
2023-01-17T21:18:54.380Z,62.50
2023-01-17T21:21:20.846Z,62.84
2023-01-17T21:23:47.247Z,62.90
2023-01-17T21:26:13.609Z,62.57
2023-01-17T21:28:39.968Z,62.42
2023-01-17T21:31:06.499Z,62.21
2023-01-17T21:33:32.739Z,61.48
2023-01-17T21:35:59.149Z,60.84
2023-01-17T21:38:26.672Z,60.64
2023-01-17T21:40:53.046Z,60.17
2023-01-17T21:43:19.376Z,60.23
2023-01-17T21:45:45.942Z,59.97
2023-01-17T21:48:12.626Z,60.43
2023-01-17T21:50:39.060Z,59.97
2023-01-17T21:53:05.375Z,59.87
2023-01-17T21:55:31.739Z,60.29
2023-01-17T21:57:58.335Z,60.35
2023-01-17T22:00:24.528Z,60.17
2023-01-17T22:02:50.886Z,59.57
2023-01-17T22:05:17.222Z,59.34
2023-01-17T22:07:43.611Z,59.44
2023-01-17T22:10:10.010Z,60.04
2023-01-17T22:12:36.376Z,60.53
2023-01-17T22:15:02.730Z,60.02
2023-01-17T22:17:29.056Z,59.44
2023-01-17T22:19:55.429Z,59.32
2023-01-17T22:22:21.834Z,59.08
2023-01-17T22:24:48.193Z,58.66
2023-01-17T22:27:14.542Z,58.74
2023-01-17T22:29:40.920Z,58.86
2023-01-17T22:32:07.330Z,58.94
2023-01-17T22:34:33.656Z,58.09
2023-01-17T22:37:00.327Z,57.65
2023-01-17T22:39:26.687Z,57.37
2023-01-17T22:41:53.079Z,57.11
2023-01-17T22:44:19.531Z,56.70
2023-01-17T22:46:45.939Z,56.10
2023-01-17T22:49:12.266Z,56.12
2023-01-17T22:51:38.708Z,55.90
2023-01-17T22:54:05.071Z,55.68
2023-01-17T22:56:31.487Z,55.75
2023-01-17T22:58:57.844Z,56.02
2023-01-17T23:01:24.378Z,56.21
2023-01-17T23:03:50.775Z,56.52
2023-01-17T23:06:17.051Z,56.84
2023-01-17T23:08:43.366Z,56.56
2023-01-17T23:11:09.798Z,56.33
2023-01-17T23:13:36.253Z,56.16
2023-01-17T23:16:02.761Z,55.48
2023-01-17T23:18:29.031Z,54.85
2023-01-17T23:20:55.388Z,54.92
2023-01-17T23:23:21.774Z,55.02
2023-01-17T23:25:48.176Z,54.65
2023-01-17T23:28:14.515Z,53.39
2023-01-17T23:30:40.872Z,53.38
2023-01-17T23:33:07.231Z,53.58
2023-01-17T23:35:33.646Z,53.02
2023-01-17T23:38:00.041Z,52.61
2023-01-17T23:40:26.412Z,52.22
2023-01-17T23:42:52.789Z,52.19
2023-01-17T23:45:19.209Z,51.97
2023-01-17T23:47:45.570Z,51.98
2023-01-17T23:50:11.927Z,52.11
2023-01-17T23:52:38.289Z,52.10
2023-01-17T23:55:04.660Z,52.26
2023-01-17T23:57:31.039Z,52.56
2023-01-17T23:59:57.401Z,52.51
